• Join FlightAware (Why Join?)
  • Login
  • US Flag 
06:20PM EDT


 

Airport Tracker/Info


-or-


 

Live Flight TrackerFlight Track Log ✈ SWA1044 ✈ 09-Apr-2013 ✈ KLAS - KSAN

Flight Track Log - Related Links

Times and Time Zones

All times are in EDT time to prevent confusion due to time zone crossing. See the SWA1044 flight status page for this flight to view local times or setup timezone preferences in your user account.

Time Position Orientation Groundspeed Altitude Reporting Facility
EDT Latitude Longitude Course Direction KTS MPH feet Rate Location/Type
04:45PM 36.1072 -115.1525 283° West 168 193 3,600  Level Los Angeles Center
04:46PM 36.1172 -115.2078 283° West 219 252 5,600 2,580 Climbing Los Angeles Center
04:47PM 36.1086 -115.2686 260° West 235 270 8,000 2,880 Climbing Los Angeles Center
04:48PM 36.0439 -115.3197 213° Southwest 284 327 10,900 2,820 Climbing Los Angeles Center
04:49PM 35.9606 -115.3578 200° South 306 352 13,900 3,000 Climbing Los Angeles Center
04:50PM 35.8656 -115.3672 185° South 349 402 17,100 2,460 Climbing Los Angeles Center
04:51PM 35.7658 -115.3272 162° South 370 426 19,000 900 Climbing Los Angeles Center
04:52PM 35.6575 -115.2919 165° South 393 452 19,000 600 Level Los Angeles Center
04:53PM 35.5464 -115.2992 183° South 395 455 20,300 1,440 Climbing Los Angeles Center
04:54PM 35.4169 -115.3186 187° South 391 450 22,000 780 Climbing Los Angeles Center
04:55PM 35.3081 -115.3394 189° South 395 455 22,000  Level Los Angeles Center
04:56PM 35.2003 -115.3619 190° South 391 450 22,000  Level Los Angeles Center
04:57PM 35.1039 -115.3803 189° South 391 450 22,000  Level Los Angeles Center
04:58PM 34.9967 -115.4000 189° South 389 448 22,000  Level Los Angeles Center
04:59PM 34.8786 -115.4236 189° South 389 448 22,000  Level Los Angeles Center
05:00PM 34.7711 -115.4431 188° South 389 448 22,000  Level Los Angeles Center
05:01PM 34.6411 -115.4675 189° South 391 450 22,000  Level Los Angeles Center
05:02PM 34.5336 -115.4889 189° South 391 450 22,000  Level Los Angeles Center
05:03PM 34.4253 -115.5083 188° South 392 451 22,000  Level Los Angeles Center
05:04PM 34.3142 -115.5319 190° South 393 452 22,000  Level Los Angeles Center
05:05PM 34.2156 -115.5839 204° Southwest 388 447 22,000  Level Los Angeles Center
05:06PM 34.1164 -115.6358 203° Southwest 387 445 22,000  Level Los Angeles Center
05:07PM 34.0169 -115.6869 203° Southwest 389 448 22,000  Level Los Angeles Center
05:08PM 33.8975 -115.7483 203° Southwest 389 448 22,000  Level Los Angeles Center
05:09PM 33.7997 -115.7994 203° Southwest 384 442 22,000 -60 Level Los Angeles Center
05:10PM 33.7000 -115.8494 203° Southwest 385 443 21,900  Descending Los Angeles Center
05:11PM 33.6008 -115.8997 203° Southwest 387 445 22,000  Climbing Los Angeles Center
05:12PM 33.5031 -115.9536 205° Southwest 387 445 22,000 -300 Level Los Angeles Center
05:13PM 33.4225 -116.0358 220° Southwest 380 437 21,400 -1,380 Descending Los Angeles Center
05:15PM 33.3258 -116.1303 219° Southwest 375 432 19,200 -1,980 Descending Los Angeles Center
05:16PM 33.2497 -116.2047 219° Southwest 360 414 17,400 -1,740 Descending Los Angeles Center
05:17PM 33.1750 -116.2789 220° Southwest 351 404 15,700 -1,620 Descending Los Angeles Center
05:18PM 33.1014 -116.3497 219° Southwest 346 398 14,100 -1,680 Descending Los Angeles Center
05:19PM 33.0236 -116.4256 219° Southwest 334 384 12,300 -1,020 Descending Los Angeles Center
05:20PM 32.9450 -116.4783 209° Southwest 327 376 12,000 -180 Descending Los Angeles Center
05:21PM 32.8597 -116.5281 206° Southwest 328 377 12,000 -540 Level Los Angeles Center
05:22PM 32.8064 -116.6100 232° Southwest 320 368 10,900 -1,380 Descending Los Angeles Center
05:23PM 32.7647 -116.6969 240° Southwest 308 354 9,200 -1,680 Descending Los Angeles Center
05:24PM 32.7258 -116.7803 241° Southwest 295 339 7,500 -1,800 Descending Los Angeles Center
05:25PM 32.6908 -116.8650 244° Southwest 288 331 5,500 -1,860 Descending Los Angeles Center
05:26PM 32.6797 -116.9683 263° West 271 312 3,700 -1,500 Descending Los Angeles Center
05:27PM 32.6975 -117.0408 286° West 234 269 2,500 -1,020 Descending Los Angeles Center
05:28PM 32.7092 -117.0939 285° West 176 203 1,600 -840 Descending Los Angeles Center
05:29PM 32.7206 -117.1356 288° West 141 162 800 -660 Descending Los Angeles Center
05:30PM 32.7322 -117.1856 286° West 139 160 300 -540 Descending Los Angeles Center
05:32PM 32.7333 -117.1833 281° West  Level FlightAware Approximate
05:39PM 32.7336 -117.1897 281° West  Level Estimated